Time,TemperatureF,DewpointF,PressureIn,WindDirection,WindDirectionDegrees,WindSpeedMPH,WindSpeedGustMPH,Humidity,HourlyPrecipIn,Conditions,Clouds,dailyrainin,SoftwareType,DateUTC
2013-02-05 00:03:00,23.0,21.0,29.94,NW,321,2.0,5.0,92,0.00,,,0.00,,2013-02-05 05:03:00,
2013-02-05 00:12:00,23.0,21.0,29.94,NW,321,2.0,5.0,92,0.00,,,0.00,,2013-02-05 05:12:00,
2013-02-05 00:22:00,23.0,21.0,29.95,WNW,290,3.0,4.0,92,0.00,,,0.00,,2013-02-05 05:22:00,
2013-02-05 00:32:00,23.0,21.0,29.96,WNW,302,4.0,6.0,92,0.00,,,0.00,,2013-02-05 05:32:00,
2013-02-05 00:42:00,23.0,21.0,29.96,WNW,302,4.0,6.0,92,0.00,,,0.00,,2013-02-05 05:42:00,
2013-02-05 00:52:00,23.0,21.0,29.94,NW,318,4.0,6.0,92,0.00,,,0.00,,2013-02-05 05:52:00,
2013-02-05 01:02:00,23.0,21.0,29.94,NW,304,5.0,8.0,92,0.00,,,0.00,,2013-02-05 06:02:00,
2013-02-05 01:11:00,23.0,21.0,29.94,NW,304,5.0,8.0,92,0.00,,,0.00,,2013-02-05 06:11:00,
2013-02-05 01:21:00,23.0,21.0,29.94,NW,323,4.0,6.0,92,0.00,,,0.00,,2013-02-05 06:21:00,
2013-02-05 01:32:00,23.0,21.0,29.94,NW,313,4.0,7.0,92,0.00,,,0.00,,2013-02-05 06:32:00,
2013-02-05 01:42:00,23.0,21.0,29.94,NW,313,4.0,7.0,92,0.00,,,0.00,,2013-02-05 06:42:00,
2013-02-05 01:52:00,23.0,21.0,29.94,NW,323,4.0,6.0,92,0.00,,,0.00,,2013-02-05 06:52:00,
2013-02-05 02:01:00,23.0,21.0,29.95,NW,326,3.0,5.0,92,0.00,,,0.00,,2013-02-05 07:01:00,
2013-02-05 02:11:00,23.0,21.0,29.95,NW,326,3.0,5.0,92,0.00,,,0.00,,2013-02-05 07:11:00,
2013-02-05 02:22:00,23.0,21.0,29.95,NNW,327,2.0,4.0,92,0.00,,,0.00,,2013-02-05 07:22:00,
2013-02-05 02:32:00,23.0,21.0,29.95,NNW,327,2.0,3.0,92,0.00,,,0.00,,2013-02-05 07:32:00,
2013-02-05 02:42:00,23.0,21.0,29.95,NNW,327,2.0,3.0,92,0.00,,,0.00,,2013-02-05 07:42:00,
2013-02-05 02:52:00,23.0,21.0,29.96,NNW,327,2.0,4.0,92,0.00,,,0.00,,2013-02-05 07:52:00,
2013-02-05 03:01:00,23.0,21.0,29.97,NW,313,3.0,5.0,92,0.00,,,0.00,,2013-02-05 08:01:00,
2013-02-05 03:11:00,23.0,21.0,29.97,NW,313,3.0,5.0,92,0.00,,,0.00,,2013-02-05 08:11:00,
2013-02-05 03:21:00,23.0,21.0,29.97,WNW,282,2.0,6.0,92,0.00,,,0.00,,2013-02-05 08:21:00,
2013-02-05 03:32:00,22.0,20.0,29.98,NW,306,2.0,7.0,92,0.00,,,0.00,,2013-02-05 08:32:00,
2013-02-05 03:42:00,22.0,20.0,29.98,NW,306,2.0,7.0,92,0.00,,,0.00,,2013-02-05 08:42:00,
2013-02-05 03:52:00,22.0,20.0,29.97,WNW,288,2.0,5.0,91,0.00,,,0.00,,2013-02-05 08:52:00,
2013-02-05 04:02:00,22.0,20.0,29.97,WNW,288,2.0,5.0,91,0.00,,,0.00,,2013-02-05 09:02:00,
2013-02-05 04:11:00,22.0,20.0,29.96,NNW,330,2.0,3.0,91,0.00,,,0.00,,2013-02-05 09:11:00,
2013-02-05 04:22:00,22.0,20.0,29.96,NNW,330,2.0,3.0,91,0.00,,,0.00,,2013-02-05 09:22:00,
2013-02-05 04:32:00,22.0,20.0,29.96,NNW,330,2.0,4.0,91,0.00,,,0.00,,2013-02-05 09:32:00,
2013-02-05 04:42:00,22.0,20.0,29.96,NNW,330,2.0,4.0,91,0.00,,,0.00,,2013-02-05 09:42:00,
2013-02-05 04:51:00,22.0,20.0,29.96,NNW,330,1.0,3.0,91,0.00,,,0.00,,2013-02-05 09:51:00,
2013-02-05 05:02:00,22.0,20.0,29.96,NNW,330,0.0,0.0,91,0.00,,,0.00,,2013-02-05 10:02:00,
2013-02-05 05:11:00,21.0,19.0,29.96,NNW,330,0.0,1.0,91,0.00,,,0.00,,2013-02-05 10:11:00,
2013-02-05 05:21:00,21.0,19.0,29.96,NNW,330,0.0,1.0,91,0.00,,,0.00,,2013-02-05 10:21:00,
2013-02-05 05:32:00,21.0,19.0,29.96,NNW,329,0.0,0.0,91,0.00,,,0.00,,2013-02-05 10:32:00,
2013-02-05 05:42:00,21.0,19.0,29.96,NNW,329,0.0,0.0,91,0.00,,,0.00,,2013-02-05 10:42:00,
2013-02-05 05:52:00,21.0,19.0,29.96,NNW,329,0.0,0.0,91,0.00,,,0.00,,2013-02-05 10:52:00,
2013-02-05 06:01:00,21.0,19.0,29.94,NNW,330,0.0,0.0,91,0.00,,,0.00,,2013-02-05 11:01:00,
2013-02-05 06:11:00,21.0,19.0,29.94,NNW,330,0.0,0.0,91,0.00,,,0.00,,2013-02-05 11:11:00,
2013-02-05 06:22:00,21.0,19.0,29.94,NNW,330,0.0,1.0,91,0.00,,,0.00,,2013-02-05 11:22:00,
2013-02-05 06:32:00,21.0,19.0,29.96,NNW,330,1.0,4.0,91,0.00,,,0.00,,2013-02-05 11:32:00,
2013-02-05 06:42:00,21.0,19.0,29.96,NNW,330,1.0,4.0,91,0.00,,,0.00,,2013-02-05 11:42:00,
2013-02-05 06:52:00,21.0,19.0,29.96,NNW,330,1.0,4.0,91,0.00,,,0.00,,2013-02-05 11:52:00,
2013-02-05 07:02:00,21.0,19.0,29.95,NNW,330,0.0,0.0,91,0.00,,,0.00,,2013-02-05 12:02:00,
2013-02-05 07:12:00,21.0,19.0,29.95,NNW,330,0.0,0.0,91,0.00,,,0.00,,2013-02-05 12:12:00,
2013-02-05 07:22:00,21.0,19.0,29.95,NNW,330,0.0,0.0,91,0.00,,,0.00,,2013-02-05 12:22:00,
2013-02-05 07:32:00,19.0,17.0,29.97,WSW,243,0.0,3.0,91,0.00,,,0.00,,2013-02-05 12:32:00,
2013-02-05 07:42:00,19.0,17.0,29.97,WSW,243,0.0,3.0,91,0.00,,,0.00,,2013-02-05 12:42:00,
2013-02-05 07:52:00,19.0,17.0,29.97,WSW,243,0.0,3.0,91,0.00,,,0.00,,2013-02-05 12:52:00,
2013-02-05 08:02:00,17.0,15.0,29.97,WSW,242,0.0,2.0,91,0.00,,,0.00,,2013-02-05 13:02:00,
2013-02-05 08:12:00,17.0,15.0,29.97,WSW,242,0.0,2.0,91,0.00,,,0.00,,2013-02-05 13:12:00,
2013-02-05 08:22:00,17.0,15.0,29.96,WSW,244,0.0,5.0,91,0.00,,,0.00,,2013-02-05 13:22:00,
2013-02-05 08:32:00,17.0,15.0,29.97,WSW,243,0.0,0.0,91,0.00,,,0.00,,2013-02-05 13:32:00,
2013-02-05 08:42:00,17.0,15.0,29.97,WSW,243,0.0,0.0,91,0.00,,,0.00,,2013-02-05 13:42:00,
2013-02-05 08:52:00,17.0,15.0,29.99,WSW,242,0.0,0.0,91,0.00,,,0.00,,2013-02-05 13:52:00,
2013-02-05 09:01:00,16.0,14.0,29.99,WSW,242,0.0,2.0,91,0.00,,,0.00,,2013-02-05 14:01:00,
2013-02-05 09:12:00,16.0,14.0,29.99,WSW,242,0.0,2.0,91,0.00,,,0.00,,2013-02-05 14:12:00,
2013-02-05 09:21:00,18.0,16.0,29.99,WSW,243,1.0,2.0,92,0.00,,,0.00,,2013-02-05 14:21:00,
2013-02-05 09:32:00,20.0,18.0,30.00,WSW,243,0.0,0.0,92,0.00,,,0.00,,2013-02-05 14:32:00,
2013-02-05 09:42:00,20.0,18.0,30.00,WSW,243,0.0,0.0,92,0.00,,,0.00,,2013-02-05 14:42:00,
2013-02-05 09:52:00,20.0,18.0,29.99,WSW,242,0.0,1.0,92,0.00,,,0.00,,2013-02-05 14:52:00,
2013-02-05 10:02:00,20.0,18.0,30.00,SSW,194,0.0,3.0,92,0.00,,,0.00,,2013-02-05 15:02:00,
2013-02-05 10:11:00,20.0,18.0,30.00,SSW,194,0.0,3.0,92,0.00,,,0.00,,2013-02-05 15:11:00,
2013-02-05 10:21:00,21.0,19.0,30.00,SSW,194,1.0,3.0,92,0.00,,,0.00,,2013-02-05 15:21:00,
2013-02-05 10:32:00,21.0,19.0,30.00,South,181,2.0,4.0,92,0.00,,,0.00,,2013-02-05 15:32:00,
2013-02-05 10:42:00,21.0,19.0,30.00,South,181,2.0,4.0,92,0.00,,,0.00,,2013-02-05 15:42:00,
2013-02-05 10:52:00,21.0,19.0,29.99,SE,130,2.0,4.0,92,0.00,,,0.00,,2013-02-05 15:52:00,
2013-02-05 11:01:00,21.0,19.0,29.99,SE,130,2.0,4.0,92,0.00,,,0.00,,2013-02-05 16:01:00,
2013-02-05 11:11:00,21.0,19.0,29.99,SE,130,2.0,4.0,92,0.00,,,0.00,,2013-02-05 16:11:00,
2013-02-05 11:22:00,22.0,20.0,29.99,SE,138,3.0,5.0,92,0.00,,,0.00,,2013-02-05 16:22:00,
2013-02-05 11:32:00,22.0,20.0,29.99,SE,138,3.0,5.0,92,0.00,,,0.00,,2013-02-05 16:32:00,
2013-02-05 11:42:00,22.0,20.0,29.99,SE,138,3.0,5.0,92,0.00,,,0.00,,2013-02-05 16:42:00,
2013-02-05 11:52:00,24.0,22.0,29.98,SE,140,5.0,7.0,92,0.00,,,0.00,,2013-02-05 16:52:00,
2013-02-05 12:01:00,24.0,22.0,29.97,ESE,117,5.0,7.0,92,0.00,,,0.00,,2013-02-05 17:01:00,
2013-02-05 12:12:00,24.0,22.0,29.97,ESE,117,5.0,7.0,92,0.00,,,0.00,,2013-02-05 17:12:00,
2013-02-05 12:22:00,24.0,22.0,29.97,SSE,167,7.0,11.0,90,0.00,,,0.00,,2013-02-05 17:22:00,
2013-02-05 12:32:00,24.0,22.0,29.97,SSE,167,7.0,11.0,90,0.00,,,0.00,,2013-02-05 17:32:00,
2013-02-05 12:42:00,24.0,22.0,29.97,SSE,167,7.0,11.0,90,0.00,,,0.00,,2013-02-05 17:42:00,
2013-02-05 12:52:00,24.0,22.0,29.97,SSE,167,7.0,11.0,90,0.00,,,0.00,,2013-02-05 17:52:00,
2013-02-05 13:52:00,29.0,23.0,29.92,SSE,166,7.0,11.0,79,0.02,,,0.02,,2013-02-05 18:52:00,
2013-02-05 14:02:00,29.0,24.0,29.92,South,177,6.0,12.0,80,0.02,,,0.02,,2013-02-05 19:02:00,
2013-02-05 14:11:00,29.0,24.0,29.92,South,177,6.0,12.0,80,0.02,,,0.02,,2013-02-05 19:11:00,
2013-02-05 14:22:00,29.0,23.0,29.92,South,169,4.0,12.0,78,0.02,,,0.02,,2013-02-05 19:22:00,
2013-02-05 14:32:00,29.0,23.0,29.91,SSW,192,7.0,10.0,77,0.03,,,0.03,,2013-02-05 19:32:00,
2013-02-05 14:42:00,29.0,23.0,29.91,SSW,192,7.0,10.0,77,0.03,,,0.03,,2013-02-05 19:42:00,
2013-02-05 14:52:00,29.0,22.0,29.90,South,171,10.0,15.0,76,0.01,,,0.03,,2013-02-05 19:52:00,
2013-02-05 15:02:00,29.0,22.0,29.89,SSE,168,6.0,13.0,76,0.01,,,0.03,,2013-02-05 20:02:00,
2013-02-05 15:11:00,29.0,22.0,29.89,SSE,168,6.0,13.0,76,0.01,,,0.03,,2013-02-05 20:11:00,
2013-02-05 15:21:00,29.0,23.0,29.89,SE,134,5.0,13.0,77,0.01,,,0.03,,2013-02-05 20:21:00,
2013-02-05 15:32:00,29.0,23.0,29.89,SSE,167,6.0,12.0,77,0.00,,,0.03,,2013-02-05 20:32:00,
2013-02-05 15:42:00,29.0,23.0,29.89,SSE,167,6.0,12.0,77,0.00,,,0.03,,2013-02-05 20:42:00,
2013-02-05 15:52:00,30.0,23.0,29.89,South,171,6.0,12.0,76,0.00,,,0.03,,2013-02-05 20:52:00,
2013-02-05 16:02:00,30.0,24.0,29.89,SSE,161,5.0,11.0,78,0.00,,,0.03,,2013-02-05 21:02:00,
2013-02-05 16:11:00,30.0,24.0,29.89,SSE,161,5.0,11.0,78,0.00,,,0.03,,2013-02-05 21:11:00,
2013-02-05 16:22:00,30.0,24.0,29.88,SE,139,7.0,11.0,77,0.00,,,0.03,,2013-02-05 21:22:00,
2013-02-05 16:32:00,30.0,24.0,29.88,SE,139,5.0,10.0,78,0.00,,,0.03,,2013-02-05 21:32:00,
2013-02-05 16:42:00,30.0,24.0,29.88,SE,139,5.0,10.0,78,0.00,,,0.03,,2013-02-05 21:42:00,
2013-02-05 16:52:00,30.0,24.0,29.88,ESE,117,6.0,11.0,77,0.00,,,0.03,,2013-02-05 21:52:00,
2013-02-05 17:01:00,30.0,24.0,29.88,SSE,159,6.0,9.0,77,0.00,,,0.03,,2013-02-05 22:01:00,
2013-02-05 17:11:00,30.0,24.0,29.88,SSE,159,6.0,9.0,77,0.00,,,0.03,,2013-02-05 22:11:00,
2013-02-05 17:22:00,30.0,24.0,29.88,SSE,166,7.0,11.0,77,0.00,,,0.03,,2013-02-05 22:22:00,
2013-02-05 17:32:00,30.0,24.0,29.88,SSE,168,4.0,9.0,77,0.00,,,0.03,,2013-02-05 22:32:00,
2013-02-05 17:42:00,30.0,24.0,29.88,SSE,168,4.0,9.0,77,0.00,,,0.03,,2013-02-05 22:42:00,
2013-02-05 17:52:00,30.0,24.0,29.89,South,175,5.0,13.0,78,0.00,,,0.03,,2013-02-05 22:52:00,
2013-02-05 18:02:00,30.0,24.0,29.91,South,176,4.0,10.0,77,0.00,,,0.03,,2013-02-05 23:02:00,
2013-02-05 18:11:00,30.0,24.0,29.91,South,176,4.0,10.0,77,0.00,,,0.03,,2013-02-05 23:11:00,
2013-02-05 18:22:00,30.0,25.0,29.92,South,183,6.0,12.0,83,0.00,,,0.03,,2013-02-05 23:22:00,
2013-02-05 18:32:00,30.0,25.0,29.92,South,183,6.0,12.0,83,0.00,,,0.03,,2013-02-05 23:32:00,
2013-02-05 18:42:00,30.0,25.0,29.92,South,183,6.0,12.0,83,0.00,,,0.03,,2013-02-05 23:42:00,
2013-02-05 18:53:00,29.0,26.0,29.93,SSW,210,3.0,5.0,90,0.00,,,0.03,,2013-02-05 23:53:00,
2013-02-05 19:02:00,29.0,26.0,29.93,SSW,213,3.0,5.0,90,0.00,,,0.03,,2013-02-06 00:02:00,
2013-02-05 19:12:00,29.0,26.0,29.93,SSW,213,3.0,5.0,90,0.00,,,0.03,,2013-02-06 00:12:00,
2013-02-05 19:22:00,29.0,27.0,29.93,South,178,2.0,5.0,91,0.00,,,0.03,,2013-02-06 00:22:00,
2013-02-05 19:32:00,29.0,27.0,29.93,South,182,3.0,9.0,92,0.00,,,0.03,,2013-02-06 00:32:00,
2013-02-05 19:42:00,29.0,27.0,29.93,South,182,3.0,9.0,92,0.00,,,0.03,,2013-02-06 00:42:00,
2013-02-05 19:52:00,28.0,26.0,29.94,South,178,4.0,7.0,92,0.00,,,0.03,,2013-02-06 00:52:00,
2013-02-05 20:02:00,28.0,26.0,29.94,South,178,4.0,7.0,92,0.00,,,0.03,,2013-02-06 01:02:00,
2013-02-05 20:12:00,28.0,26.0,29.94,South,178,4.0,7.0,92,0.00,,,0.03,,2013-02-06 01:12:00,
2013-02-05 20:22:00,29.0,27.0,29.95,South,182,3.0,7.0,93,0.00,,,0.03,,2013-02-06 01:22:00,
2013-02-05 20:32:00,29.0,27.0,29.95,South,182,3.0,7.0,93,0.00,,,0.03,,2013-02-06 01:32:00,
2013-02-05 20:42:00,29.0,27.0,29.95,South,182,3.0,7.0,93,0.00,,,0.03,,2013-02-06 01:42:00,
2013-02-05 20:53:00,30.0,28.0,29.95,South,176,3.0,10.0,93,0.00,,,0.03,,2013-02-06 01:53:00,
2013-02-05 21:02:00,30.0,28.0,29.95,South,176,3.0,10.0,93,0.00,,,0.03,,2013-02-06 02:02:00,
2013-02-05 21:12:00,30.0,28.0,29.95,South,176,3.0,10.0,93,0.00,,,0.03,,2013-02-06 02:12:00,
2013-02-05 21:22:00,30.0,28.0,29.97,SSW,213,5.0,9.0,92,0.00,,,0.03,,2013-02-06 02:22:00,
2013-02-05 21:32:00,31.0,29.0,29.97,South,186,4.0,10.0,92,0.00,,,0.03,,2013-02-06 02:32:00,
2013-02-05 21:42:00,31.0,29.0,29.97,South,186,4.0,10.0,92,0.00,,,0.03,,2013-02-06 02:42:00,
2013-02-05 21:53:00,31.0,29.0,29.98,SSW,198,6.0,12.0,92,0.00,,,0.03,,2013-02-06 02:53:00,
2013-02-05 22:03:00,31.0,29.0,29.98,SW,226,4.0,10.0,92,0.00,,,0.03,,2013-02-06 03:03:00,
2013-02-05 22:12:00,31.0,29.0,29.98,SW,226,4.0,10.0,92,0.00,,,0.03,,2013-02-06 03:12:00,
2013-02-05 22:22:00,31.0,29.0,30.00,SSW,211,5.0,10.0,91,0.00,,,0.03,,2013-02-06 03:22:00,
2013-02-05 22:32:00,31.0,29.0,30.00,SSW,211,5.0,10.0,91,0.00,,,0.03,,2013-02-06 03:32:00,
2013-02-05 22:42:00,31.0,29.0,30.00,SSW,211,5.0,10.0,91,0.00,,,0.03,,2013-02-06 03:42:00,
2013-02-05 22:53:00,31.0,29.0,30.00,SSW,192,5.0,10.0,91,0.00,,,0.03,,2013-02-06 03:53:00,
2013-02-05 23:02:00,31.0,28.0,30.00,SW,229,4.0,11.0,90,0.00,,,0.03,,2013-02-06 04:02:00,
2013-02-05 23:11:00,31.0,28.0,30.00,SW,229,4.0,11.0,90,0.00,,,0.03,,2013-02-06 04:11:00,
2013-02-05 23:22:00,31.0,28.0,30.01,SSW,202,3.0,11.0,89,0.00,,,0.03,,2013-02-06 04:22:00,
2013-02-05 23:32:00,31.0,28.0,30.02,SW,222,3.0,10.0,89,0.00,,,0.03,,2013-02-06 04:32:00,
2013-02-05 23:42:00,31.0,28.0,30.02,SW,222,3.0,10.0,89,0.00,,,0.03,,2013-02-06 04:42:00,
2013-02-05 23:52:00,31.0,28.0,30.02,WSW,241,6.0,10.0,89,0.00,,,0.03,,2013-02-06 04:52:00,